createdAt,value
2018-12-21T00:02:20.849Z,12.38
2018-12-21T00:04:46.817Z,12.51
2018-12-21T00:07:12.765Z,12.61
2018-12-21T00:09:38.716Z,12.60
2018-12-21T00:12:04.671Z,12.67
2018-12-21T00:14:30.643Z,12.66
2018-12-21T00:16:56.577Z,12.54
2018-12-21T00:19:22.547Z,12.47
2018-12-21T00:21:48.508Z,12.37
2018-12-21T00:24:14.476Z,12.42
2018-12-21T00:26:40.422Z,12.66
2018-12-21T00:29:06.380Z,12.90
2018-12-21T00:31:32.323Z,12.80
2018-12-21T00:33:58.301Z,12.99
2018-12-21T00:36:24.241Z,12.73
2018-12-21T00:38:50.223Z,12.92
2018-12-21T00:41:16.181Z,12.88
2018-12-21T00:43:42.156Z,12.76
2018-12-21T00:46:08.134Z,12.72
2018-12-21T00:48:34.102Z,12.76
2018-12-21T00:51:00.041Z,12.84
2018-12-21T00:53:26.012Z,12.92
2018-12-21T00:55:51.950Z,12.98
2018-12-21T00:58:17.887Z,13.04
2018-12-21T01:00:43.817Z,12.93
2018-12-21T01:03:09.787Z,13.10
2018-12-21T01:05:35.729Z,13.11
2018-12-21T01:08:01.713Z,13.04
2018-12-21T01:10:27.655Z,12.92
2018-12-21T01:12:53.600Z,12.96
2018-12-21T01:15:19.562Z,12.95
2018-12-21T01:17:45.500Z,12.98
2018-12-21T01:20:11.471Z,12.87
2018-12-21T01:22:37.465Z,12.79
2018-12-21T01:25:03.452Z,12.93
2018-12-21T01:27:29.415Z,12.92
2018-12-21T01:29:55.384Z,12.93
2018-12-21T01:32:21.329Z,13.00
2018-12-21T01:34:47.342Z,12.94
2018-12-21T01:37:13.296Z,12.96
2018-12-21T01:39:39.271Z,13.07
2018-12-21T01:42:05.228Z,13.03
2018-12-21T01:44:31.270Z,12.97
2018-12-21T01:46:57.228Z,12.88
2018-12-21T01:49:23.182Z,12.94
2018-12-21T01:51:49.116Z,13.02
2018-12-21T01:54:15.066Z,12.84
2018-12-21T01:56:41.009Z,13.02
2018-12-21T01:59:06.948Z,13.23
2018-12-21T02:01:32.902Z,13.19
2018-12-21T02:03:58.841Z,13.02
2018-12-21T02:06:24.796Z,13.03
2018-12-21T02:08:50.810Z,12.91
2018-12-21T02:11:16.769Z,12.89
2018-12-21T02:13:42.704Z,13.06
2018-12-21T02:16:08.652Z,13.09
2018-12-21T02:18:34.616Z,13.01
2018-12-21T02:21:00.582Z,12.96
2018-12-21T02:23:26.529Z,13.15
2018-12-21T02:25:52.491Z,13.23
2018-12-21T02:28:18.443Z,13.19
2018-12-21T02:30:44.401Z,13.03
2018-12-21T02:33:10.367Z,12.93
2018-12-21T02:35:36.438Z,12.98
2018-12-21T02:38:02.401Z,12.96
2018-12-21T02:40:28.356Z,13.11
2018-12-21T02:42:54.314Z,13.08
2018-12-21T02:45:20.273Z,12.98
2018-12-21T02:47:46.232Z,12.87
2018-12-21T02:50:12.241Z,12.80
2018-12-21T02:52:38.184Z,12.76
2018-12-21T02:55:04.139Z,12.98
2018-12-21T02:57:30.075Z,12.92
2018-12-21T02:59:56.015Z,13.16
2018-12-21T03:02:21.991Z,12.88
2018-12-21T03:04:47.937Z,12.76
2018-12-21T03:07:13.882Z,12.81
2018-12-21T03:09:39.827Z,12.80
2018-12-21T03:12:06.429Z,12.87
2018-12-21T03:14:32.407Z,12.97
2018-12-21T03:16:58.352Z,12.78
2018-12-21T03:19:24.286Z,12.82
2018-12-21T03:21:50.238Z,12.83
2018-12-21T03:24:16.199Z,12.80
2018-12-21T03:26:42.143Z,12.87
2018-12-21T03:29:08.083Z,12.83
2018-12-21T03:31:34.034Z,12.87
2018-12-21T03:33:59.987Z,12.86
2018-12-21T03:36:25.936Z,12.98
2018-12-21T03:38:52.024Z,12.84
2018-12-21T03:41:18.001Z,12.80
2018-12-21T03:43:43.951Z,12.98
2018-12-21T03:46:09.926Z,12.84
2018-12-21T03:48:35.888Z,12.77
2018-12-21T03:51:01.840Z,12.85
2018-12-21T03:53:27.775Z,12.84
2018-12-21T03:55:53.709Z,12.64
2018-12-21T03:58:19.664Z,12.75
2018-12-21T04:00:45.622Z,13.06
2018-12-21T04:03:11.586Z,12.96
2018-12-21T04:05:37.525Z,12.85
2018-12-21T04:08:03.480Z,12.82
2018-12-21T04:10:29.421Z,12.74
2018-12-21T04:12:55.365Z,12.76
2018-12-21T04:15:21.299Z,12.83
2018-12-21T04:17:47.267Z,12.91
2018-12-21T04:20:13.216Z,12.85
2018-12-21T04:22:39.153Z,12.65
2018-12-21T04:25:05.120Z,12.70
2018-12-21T04:27:31.075Z,12.85
2018-12-21T04:29:57.024Z,12.83
2018-12-21T04:32:23.054Z,12.77
2018-12-21T04:34:49.021Z,12.83
2018-12-21T04:37:14.979Z,12.80
2018-12-21T04:39:40.931Z,12.87
2018-12-21T04:42:06.900Z,12.82
2018-12-21T04:44:32.856Z,12.78
2018-12-21T04:46:58.806Z,12.80
2018-12-21T04:49:24.771Z,12.70
2018-12-21T04:51:50.795Z,12.78
2018-12-21T04:54:16.748Z,12.85
2018-12-21T04:56:42.720Z,12.72
2018-12-21T04:59:09.723Z,12.80
2018-12-21T05:01:35.885Z,12.82
2018-12-21T05:04:01.931Z,12.74
2018-12-21T05:06:27.909Z,12.67
2018-12-21T05:08:53.882Z,12.75
2018-12-21T05:11:19.981Z,12.83
2018-12-21T05:13:46.074Z,12.86
2018-12-21T05:16:12.092Z,12.89
2018-12-21T05:18:38.047Z,13.04
2018-12-21T05:21:03.992Z,12.74
2018-12-21T05:23:29.943Z,12.85
2018-12-21T05:25:55.880Z,12.85
2018-12-21T05:28:21.843Z,12.91
2018-12-21T05:30:47.776Z,12.90
2018-12-21T05:33:13.773Z,12.91
2018-12-21T05:35:39.739Z,13.12
2018-12-21T05:38:05.709Z,13.06
2018-12-21T05:40:31.652Z,13.13
2018-12-21T05:42:57.605Z,13.03
2018-12-21T05:45:23.639Z,12.93
2018-12-21T05:47:49.619Z,12.84
2018-12-21T05:50:15.568Z,12.84
2018-12-21T05:52:41.542Z,12.79
2018-12-21T05:55:07.587Z,12.90
2018-12-21T05:57:33.610Z,13.11
2018-12-21T05:59:59.576Z,13.16
2018-12-21T06:02:25.634Z,13.27
2018-12-21T06:04:51.577Z,13.31
2018-12-21T06:07:17.514Z,13.27
2018-12-21T06:09:43.456Z,13.33
2018-12-21T06:12:09.397Z,13.21
2018-12-21T06:14:35.349Z,13.16
2018-12-21T06:17:01.309Z,13.28
2018-12-21T06:19:27.259Z,13.36
2018-12-21T06:21:53.211Z,13.49
2018-12-21T06:24:19.167Z,13.41
2018-12-21T06:26:45.140Z,13.47
2018-12-21T06:29:11.102Z,13.49
2018-12-21T06:31:37.039Z,13.32
2018-12-21T06:34:02.993Z,13.25
2018-12-21T06:36:28.929Z,13.14
2018-12-21T06:38:54.880Z,13.01
2018-12-21T06:41:20.840Z,13.11
2018-12-21T06:43:46.794Z,13.11
2018-12-21T06:46:14.237Z,13.13
2018-12-21T06:48:40.509Z,13.27
2018-12-21T06:51:06.863Z,13.49
2018-12-21T06:53:32.800Z,13.47
2018-12-21T06:55:58.759Z,13.23
2018-12-21T06:58:24.820Z,13.18
2018-12-21T07:00:50.757Z,13.13
2018-12-21T07:03:17.147Z,13.26
2018-12-21T07:05:43.736Z,13.26
2018-12-21T07:08:09.706Z,13.48
2018-12-21T07:10:35.772Z,13.36
2018-12-21T07:13:01.742Z,13.34
2018-12-21T07:15:27.714Z,13.36
2018-12-21T07:17:53.657Z,13.43
2018-12-21T07:20:19.619Z,13.47
2018-12-21T07:22:45.557Z,13.23
2018-12-21T07:25:11.516Z,13.16
2018-12-21T07:27:37.480Z,13.16
2018-12-21T07:30:03.429Z,13.24
2018-12-21T07:32:29.385Z,13.21
2018-12-21T07:34:55.320Z,13.67
2018-12-21T07:37:21.296Z,13.58
2018-12-21T07:39:47.227Z,13.43
2018-12-21T07:42:13.161Z,13.74
2018-12-21T07:44:39.093Z,13.57
2018-12-21T07:47:05.062Z,13.73
2018-12-21T07:49:31.004Z,13.69
2018-12-21T07:51:56.943Z,13.84
2018-12-21T07:54:22.907Z,13.90
2018-12-21T07:56:48.859Z,14.05
2018-12-21T07:59:14.816Z,13.82
2018-12-21T08:01:40.757Z,13.71
2018-12-21T08:04:06.712Z,13.58
2018-12-21T08:06:32.672Z,13.68
2018-12-21T08:08:58.683Z,13.68
2018-12-21T08:11:24.617Z,13.62
2018-12-21T08:13:50.563Z,13.76
2018-12-21T08:16:16.539Z,13.66
2018-12-21T08:18:42.499Z,13.58
2018-12-21T08:21:08.493Z,13.83
2018-12-21T08:23:34.493Z,13.69
2018-12-21T08:26:00.495Z,13.90
2018-12-21T08:28:26.448Z,14.02
2018-12-21T08:30:52.432Z,13.84
2018-12-21T08:33:18.400Z,14.10
2018-12-21T08:35:44.355Z,14.05
2018-12-21T08:38:10.323Z,13.98
2018-12-21T08:40:36.334Z,13.74
2018-12-21T08:43:02.276Z,13.99
2018-12-21T08:45:28.220Z,14.09
2018-12-21T08:47:54.164Z,13.85
2018-12-21T08:50:20.119Z,13.91
2018-12-21T08:52:46.072Z,13.97
2018-12-21T08:55:12.118Z,14.10
2018-12-21T08:57:39.209Z,14.13
2018-12-21T09:00:05.387Z,14.12
2018-12-21T09:02:31.367Z,14.14
2018-12-21T09:04:57.356Z,14.17
2018-12-21T09:07:23.316Z,13.70
2018-12-21T09:09:49.337Z,14.18
2018-12-21T09:12:15.308Z,14.18
2018-12-21T09:14:41.282Z,14.05
2018-12-21T09:17:07.257Z,14.20
2018-12-21T09:19:33.212Z,14.19
2018-12-21T09:21:59.220Z,14.17
2018-12-21T09:26:56.901Z,14.34
2018-12-21T09:29:22.880Z,14.04
2018-12-21T09:31:48.857Z,14.00
2018-12-21T09:34:14.865Z,14.34
2018-12-21T09:36:43.894Z,14.24
2018-12-21T09:39:09.867Z,14.21
2018-12-21T09:41:35.907Z,14.08
2018-12-21T09:44:01.902Z,14.38
2018-12-21T09:46:27.938Z,14.27
2018-12-21T09:48:53.895Z,14.41
2018-12-21T09:51:19.853Z,13.94
2018-12-21T09:53:45.812Z,13.89
2018-12-21T09:56:11.816Z,14.62
2018-12-21T09:58:37.771Z,14.64
2018-12-21T10:01:03.764Z,13.83
2018-12-21T10:03:29.797Z,13.10
2018-12-21T10:05:55.780Z,13.45
2018-12-21T10:08:21.742Z,14.25
2018-12-21T10:10:47.731Z,13.84
2018-12-21T10:13:13.708Z,14.39
2018-12-21T10:15:39.685Z,14.39
2018-12-21T10:18:05.665Z,14.58
2018-12-21T10:20:31.654Z,14.70
2018-12-21T10:22:57.634Z,14.43
2018-12-21T10:25:23.604Z,14.50
2018-12-21T10:27:49.593Z,14.31
2018-12-21T10:30:15.557Z,14.52
2018-12-21T10:32:43.510Z,14.69
2018-12-21T10:35:11.473Z,14.43
2018-12-21T10:37:37.449Z,14.47
2018-12-21T10:40:03.401Z,14.65
2018-12-21T10:42:29.376Z,14.67
2018-12-21T10:44:55.313Z,14.41
2018-12-21T10:47:21.272Z,14.28
2018-12-21T10:49:47.243Z,14.15
2018-12-21T10:52:13.215Z,14.03
2018-12-21T10:54:39.208Z,13.70
2018-12-21T10:57:05.177Z,14.47
2018-12-21T10:59:31.144Z,14.43
2018-12-21T11:01:57.110Z,14.21
2018-12-21T11:04:23.068Z,13.95
2018-12-21T11:06:49.040Z,14.32
2018-12-21T11:09:15.016Z,14.26
2018-12-21T11:11:40.977Z,14.57
2018-12-21T11:14:06.917Z,13.65
2018-12-21T11:16:32.961Z,13.66
2018-12-21T11:18:58.980Z,13.84
2018-12-21T11:21:24.932Z,14.29
2018-12-21T11:23:50.892Z,14.37
2018-12-21T11:26:16.861Z,14.24
2018-12-21T11:28:42.881Z,14.34
2018-12-21T11:31:08.832Z,14.46
2018-12-21T11:33:34.812Z,14.31
2018-12-21T11:36:00.782Z,14.54
2018-12-21T11:38:26.760Z,14.53
2018-12-21T11:40:52.803Z,14.87
2018-12-21T11:43:18.785Z,14.56
2018-12-21T11:45:44.780Z,14.30
2018-12-21T11:48:10.761Z,14.51
2018-12-21T11:50:36.732Z,14.86
2018-12-21T11:53:03.502Z,14.96
2018-12-21T11:55:29.437Z,14.69
2018-12-21T11:57:55.425Z,14.82
2018-12-21T12:00:22.108Z,14.38
2018-12-21T12:02:48.087Z,14.35
2018-12-21T12:05:14.032Z,14.29
2018-12-21T12:07:40.152Z,14.47
2018-12-21T12:10:06.331Z,14.45
2018-12-21T12:12:32.320Z,13.86
2018-12-21T12:14:58.295Z,14.06
2018-12-21T12:17:24.285Z,14.35
2018-12-21T12:19:50.228Z,14.25
2018-12-21T12:22:16.225Z,13.92
2018-12-21T12:24:42.195Z,14.04
2018-12-21T12:27:08.175Z,13.93
2018-12-21T12:29:34.139Z,13.75
2018-12-21T12:32:00.106Z,14.12
2018-12-21T12:34:26.051Z,13.71
2018-12-21T12:36:52.011Z,14.03
2018-12-21T12:39:17.965Z,13.65
2018-12-21T12:41:43.914Z,13.88
2018-12-21T12:44:09.878Z,14.00
2018-12-21T12:46:35.825Z,13.88
2018-12-21T12:49:01.796Z,13.94
2018-12-21T12:51:27.767Z,13.02
2018-12-21T12:53:53.767Z,13.78
2018-12-21T12:56:19.997Z,13.93
2018-12-21T12:58:45.997Z,13.35
2018-12-21T13:01:11.946Z,13.56
2018-12-21T13:03:37.924Z,12.95
2018-12-21T13:06:03.899Z,13.45
2018-12-21T13:08:29.984Z,12.72
2018-12-21T13:10:55.984Z,13.56
2018-12-21T13:13:21.958Z,12.69
2018-12-21T13:15:47.929Z,12.73
2018-12-21T13:18:14.772Z,12.20
2018-12-21T13:20:40.721Z,12.88
2018-12-21T13:23:06.687Z,13.20
2018-12-21T13:25:32.659Z,13.14
2018-12-21T13:27:58.627Z,13.76
2018-12-21T13:30:27.289Z,13.97
2018-12-21T13:32:53.294Z,13.60
2018-12-21T13:35:19.357Z,13.51
2018-12-21T13:37:45.319Z,13.41
2018-12-21T13:40:11.288Z,13.89
2018-12-21T13:42:37.263Z,14.09
2018-12-21T13:45:03.251Z,14.06
2018-12-21T13:47:29.195Z,14.13
2018-12-21T13:49:55.204Z,13.90
2018-12-21T13:52:21.151Z,13.68
2018-12-21T13:54:47.145Z,14.19
2018-12-21T13:57:13.096Z,14.03
2018-12-21T13:59:39.154Z,13.95
2018-12-21T14:02:05.126Z,14.08
2018-12-21T14:04:31.110Z,13.64
2018-12-21T14:06:57.101Z,14.15
2018-12-21T14:09:23.084Z,13.47
2018-12-21T14:11:49.068Z,13.72
2018-12-21T14:14:15.094Z,13.65
2018-12-21T14:16:41.068Z,13.78
2018-12-21T14:19:08.072Z,13.31
2018-12-21T14:21:34.357Z,13.97
2018-12-21T14:24:00.455Z,14.04
2018-12-21T14:26:26.500Z,12.87
2018-12-21T14:28:53.074Z,12.30
2018-12-21T14:31:19.058Z,12.58
2018-12-21T14:33:45.017Z,13.27
2018-12-21T14:36:12.237Z,13.51
2018-12-21T14:38:38.179Z,13.11
2018-12-21T14:41:05.795Z,13.34
2018-12-21T14:43:32.657Z,13.71
2018-12-21T14:45:58.680Z,13.22
2018-12-21T14:48:25.313Z,13.16
2018-12-21T14:50:51.344Z,13.04
2018-12-21T14:53:17.351Z,12.18
2018-12-21T14:55:43.341Z,11.51
2018-12-21T14:58:09.324Z,12.02
2018-12-21T15:00:41.378Z,11.39
2018-12-21T15:03:07.485Z,11.27
2018-12-21T15:05:33.484Z,11.01
2018-12-21T15:08:00.075Z,12.14
2018-12-21T15:10:26.025Z,12.60
2018-12-21T15:12:51.980Z,13.06
2018-12-21T15:15:17.957Z,12.33
2018-12-21T15:17:43.908Z,13.14
2018-12-21T15:20:09.896Z,12.81
2018-12-21T15:22:35.846Z,12.25
2018-12-21T15:25:01.815Z,12.83
2018-12-21T15:27:28.729Z,13.54
2018-12-21T15:29:54.701Z,13.70
2018-12-21T15:32:21.747Z,13.60
2018-12-21T15:34:47.717Z,13.61
2018-12-21T15:37:13.668Z,13.83
2018-12-21T15:39:39.675Z,14.03
2018-12-21T15:42:06.325Z,14.29
2018-12-21T15:44:32.314Z,14.22
2018-12-21T15:46:59.269Z,14.26
2018-12-21T15:49:26.197Z,13.90
2018-12-21T15:51:52.181Z,14.29
2018-12-21T15:54:18.156Z,14.47
2018-12-21T15:56:44.449Z,14.60
2018-12-21T15:59:10.415Z,14.34
2018-12-21T16:01:36.988Z,14.44
2018-12-21T16:04:03.520Z,14.54
2018-12-21T16:06:29.483Z,14.61
2018-12-21T16:08:56.210Z,14.73
2018-12-21T16:11:22.212Z,14.69
2018-12-21T16:13:48.189Z,14.81
2018-12-21T16:16:14.193Z,14.72
2018-12-21T16:18:40.686Z,14.83
2018-12-21T16:21:06.662Z,15.08
2018-12-21T16:23:32.639Z,15.06
2018-12-21T16:26:03.474Z,14.92
2018-12-21T16:28:26.621Z,15.21
2018-12-21T16:30:52.577Z,15.19
2018-12-21T16:33:18.560Z,15.06
2018-12-21T16:35:44.538Z,15.02
2018-12-21T16:38:10.501Z,14.99
2018-12-21T16:40:36.480Z,15.12
2018-12-21T16:43:02.424Z,14.56
2018-12-21T16:45:28.493Z,14.61
2018-12-21T16:47:54.440Z,15.13
2018-12-21T16:50:20.378Z,15.39
2018-12-21T16:52:46.331Z,15.43
2018-12-21T16:55:12.321Z,15.36
2018-12-21T16:57:38.280Z,15.40
2018-12-21T17:00:04.256Z,15.38
2018-12-21T17:02:30.197Z,15.36
2018-12-21T17:04:56.159Z,15.60
2018-12-21T17:07:22.158Z,14.99
2018-12-21T17:09:48.133Z,15.57
2018-12-21T17:12:14.095Z,15.18
2018-12-21T17:14:40.826Z,15.12
2018-12-21T17:17:06.815Z,14.70
2018-12-21T17:19:32.789Z,15.37
2018-12-21T17:21:58.775Z,15.12
2018-12-21T17:24:25.603Z,15.27
2018-12-21T17:26:51.597Z,15.72
2018-12-21T17:29:18.751Z,14.96
2018-12-21T17:31:44.720Z,15.63
2018-12-21T17:34:10.720Z,15.50
2018-12-21T17:36:36.698Z,14.86
2018-12-21T17:39:03.405Z,15.73
2018-12-21T17:41:29.369Z,16.10
2018-12-21T17:43:55.329Z,15.28
2018-12-21T17:46:21.290Z,15.20
2018-12-21T17:48:47.251Z,15.14
2018-12-21T17:51:13.364Z,15.21
2018-12-21T17:53:40.514Z,15.26
2018-12-21T17:56:06.601Z,15.43
2018-12-21T17:58:33.122Z,14.81
2018-12-21T18:00:59.061Z,15.21
2018-12-21T18:03:25.070Z,15.58
2018-12-21T18:05:51.040Z,15.71
2018-12-21T18:08:17.012Z,15.65
2018-12-21T18:10:42.956Z,15.24
2018-12-21T18:13:08.921Z,15.56
2018-12-21T18:15:34.860Z,16.19
2018-12-21T18:18:00.799Z,15.88
2018-12-21T18:20:27.385Z,15.90
2018-12-21T18:22:53.371Z,15.65
2018-12-21T18:25:19.344Z,15.95
2018-12-21T18:27:45.362Z,15.01
2018-12-21T18:30:11.317Z,15.23
2018-12-21T18:32:37.300Z,15.28
2018-12-21T18:35:04.462Z,15.01
2018-12-21T18:37:31.208Z,15.38
2018-12-21T18:39:57.167Z,14.87
2018-12-21T18:42:23.142Z,15.05
2018-12-21T18:44:49.096Z,15.53
2018-12-21T18:47:15.070Z,15.73
2018-12-21T18:49:42.143Z,15.86
2018-12-21T18:54:44.099Z,15.24
2018-12-21T18:57:11.091Z,15.81
2018-12-21T18:59:37.198Z,15.93
2018-12-21T19:02:04.092Z,15.44
2018-12-21T19:04:33.462Z,16.54
2018-12-21T19:06:59.442Z,16.74
2018-12-21T19:09:26.128Z,16.75
2018-12-21T19:11:52.096Z,16.78
2018-12-21T19:14:18.065Z,16.83
2018-12-21T19:16:44.076Z,16.38
2018-12-21T19:19:10.048Z,15.89
2018-12-21T19:21:36.000Z,16.05
2018-12-21T19:24:02.024Z,16.23
2018-12-21T19:26:28.003Z,15.90
2018-12-21T19:28:53.999Z,16.30
2018-12-21T19:31:20.034Z,15.87
2018-12-21T19:33:46.041Z,16.23
2018-12-21T19:36:11.997Z,16.21
2018-12-21T19:38:37.982Z,16.84
2018-12-21T19:41:03.973Z,16.92
2018-12-21T19:43:29.972Z,16.57
2018-12-21T19:45:56.975Z,16.38
2018-12-21T19:48:22.940Z,16.61
2018-12-21T19:50:49.735Z,16.56
2018-12-21T19:53:16.772Z,16.36
2018-12-21T19:55:42.764Z,16.25
2018-12-21T19:58:08.739Z,16.47
2018-12-21T20:00:34.701Z,17.01
2018-12-21T20:03:00.660Z,15.96
2018-12-21T20:05:26.651Z,16.06
2018-12-21T20:07:52.604Z,16.53
2018-12-21T20:10:19.175Z,16.55
2018-12-21T20:12:45.149Z,16.08
2018-12-21T20:15:11.140Z,16.63
2018-12-21T20:17:37.144Z,16.35
2018-12-21T20:20:03.111Z,15.67
2018-12-21T20:22:29.251Z,15.77
2018-12-21T20:24:55.250Z,16.29
2018-12-21T20:27:21.224Z,16.14
2018-12-21T20:29:47.336Z,17.17
2018-12-21T20:32:13.340Z,16.53
2018-12-21T20:34:39.353Z,17.07
2018-12-21T20:37:05.312Z,17.03
2018-12-21T20:39:33.292Z,17.16
2018-12-21T20:41:59.288Z,16.83
2018-12-21T20:44:25.309Z,17.15
2018-12-21T20:46:51.410Z,16.85
2018-12-21T20:49:17.507Z,16.86
2018-12-21T20:51:43.487Z,17.22
2018-12-21T20:54:09.615Z,16.61
2018-12-21T20:56:35.664Z,16.07
2018-12-21T20:59:01.694Z,16.85
2018-12-21T21:01:27.659Z,16.76
2018-12-21T21:03:53.639Z,16.78
2018-12-21T21:06:19.605Z,16.42
2018-12-21T21:08:45.569Z,16.57
2018-12-21T21:11:11.530Z,16.94
2018-12-21T21:13:37.611Z,15.70
2018-12-21T21:16:03.577Z,15.67
2018-12-21T21:18:29.615Z,16.19
2018-12-21T21:20:55.577Z,16.68
2018-12-21T21:23:21.545Z,16.97
2018-12-21T21:25:47.489Z,16.23
2018-12-21T21:28:13.550Z,15.60
2018-12-21T21:30:39.580Z,15.70
2018-12-21T21:33:05.673Z,16.07
2018-12-21T21:35:31.731Z,16.67
2018-12-21T21:37:57.696Z,16.57
2018-12-21T21:40:23.668Z,16.00
2018-12-21T21:42:57.239Z,16.31
2018-12-21T21:45:17.719Z,16.72
2018-12-21T21:47:43.675Z,16.72
2018-12-21T21:50:10.019Z,16.77
2018-12-21T21:52:35.958Z,16.74
2018-12-21T21:55:01.915Z,16.92
2018-12-21T21:57:27.849Z,16.90
2018-12-21T21:59:53.802Z,16.73
2018-12-21T22:02:19.745Z,16.86
2018-12-21T22:04:45.742Z,16.61
2018-12-21T22:07:11.829Z,16.37
2018-12-21T22:09:37.822Z,17.02
2018-12-21T22:12:03.757Z,17.08
2018-12-21T22:14:29.705Z,16.70
2018-12-21T22:16:55.642Z,16.95
2018-12-21T22:19:21.595Z,16.64
2018-12-21T22:21:47.610Z,16.71
2018-12-21T22:24:13.544Z,16.73
2018-12-21T22:26:39.528Z,16.73
2018-12-21T22:29:05.480Z,16.71
2018-12-21T22:31:31.464Z,17.10
2018-12-21T22:33:58.440Z,17.19
2018-12-21T22:36:25.522Z,17.19
2018-12-21T22:38:51.457Z,16.79
2018-12-21T22:41:17.413Z,16.75
2018-12-21T22:43:43.383Z,16.84
2018-12-21T22:46:09.366Z,16.99
2018-12-21T22:48:35.339Z,17.29
2018-12-21T22:51:01.316Z,17.10
2018-12-21T22:53:27.271Z,16.90
2018-12-21T22:55:53.244Z,17.16
2018-12-21T22:58:19.200Z,16.98
2018-12-21T23:00:45.143Z,17.14
2018-12-21T23:03:11.100Z,17.03
2018-12-21T23:05:37.046Z,16.90
2018-12-21T23:08:02.995Z,16.24
2018-12-21T23:10:28.936Z,16.82
2018-12-21T23:12:54.869Z,16.90
2018-12-21T23:15:20.864Z,16.73
2018-12-21T23:17:46.875Z,17.02
2018-12-21T23:20:12.824Z,17.11
2018-12-21T23:22:38.876Z,17.06
2018-12-21T23:25:04.815Z,16.35
2018-12-21T23:27:30.784Z,16.40
2018-12-21T23:29:56.742Z,16.76
2018-12-21T23:32:22.756Z,16.97
2018-12-21T23:34:48.748Z,16.66
2018-12-21T23:37:14.708Z,16.64
2018-12-21T23:39:40.669Z,17.23
2018-12-21T23:42:06.636Z,17.25
2018-12-21T23:44:32.596Z,17.21
2018-12-21T23:46:58.614Z,17.33
2018-12-21T23:49:24.543Z,16.66
2018-12-21T23:51:50.524Z,17.21
2018-12-21T23:54:16.479Z,17.12
2018-12-21T23:56:42.474Z,16.94
2018-12-21T23:59:08.430Z,17.18
